Hoegh Berlin — C6XQ4 — position and weather

sailwx.info

Track history (hours):
 
Tides and Currents Weather Stations Pressure Air Temp Water Temp Dewpoint Dewpoint Depression Visibility Wind Speed Wind Dir Waves Ship Positions

Hoegh Berlin

Last reported at 2016-Apr-13 09:09 UTC. Time now 2016-May-02 19:24 UTC.
Position N 33°60' E 134°57'.
Warning: this ship's position is 19 days out of date.

Length 228 m; draft 9.7 m.

Type: Cargo ship. MMSI: 311019100.

Date/timePositionNaut miles runAvg speedWind from/ knotsBaromVisibWave heightAir tempDewpointWater temp
2016-Apr-13 09:09N 33°60' E 134°57'915.4
2016-Apr-13 08:33N 34°09' E 134°58'1413.3
2016-Apr-13 07:32N 34°22' E 135°01'1717.3
2016-Apr-13 06:34N 34°34' E 135°15'7 3.3
2016-Apr-13 04:22N 34°41' E 135°17'0 0.0
2016-Apr-13 03:28N 34°41' E 135°17'0 0.0
2016-Apr-13 02:28N 34°41' E 135°17'0 0.0
2016-Apr-13 01:28N 34°41' E 135°17'0 0.0
2016-Apr-13 00:28N 34°41' E 135°17'0 0.0
2016-Apr-12 23:28N 34°41' E 135°17'1 0.7
2016-Apr-12 22:33N 34°41' E 135°18'1010.1
2016-Apr-12 21:33N 34°32' E 135°13'1616.4
2016-Apr-12 20:33N 34°19' E 135°00'1312.5
2016-Apr-12 19:33N 34°07' E 134°59'20710.9
2016-Apr-12 00:32N 34°02' E 130°50'  
2016-Apr-09 15:27N 34°27' E 125°33'22215.9
2016-Apr-09 01:28N 37°41' E 123°17'2016.0
2016-Apr-09 00:15N 37°49' E 122°54'1516.0
2016-Apr-08 23:19N 37°55' E 122°37'1215.9
2016-Apr-08 22:33N 38°00' E 122°23'1716.1
2016-Apr-08 21:28N 38°07' E 122°03'1516.5
2016-Apr-08 20:33N 38°14' E 121°45'1916.4
2016-Apr-08 19:24N 38°21' E 121°23'1416.5
2016-Apr-08 18:33N 38°26' E 121°07'15915.8
2016-Apr-08 08:31N 38°59' E 117°48'3 0.7
2016-Apr-08 04:18N 39°01' E 117°46'1 1.1
2016-Apr-08 03:31N 39°01' E 117°47'22 6.5
2016-Apr-08 00:10N 38°53' E 118°13'6 7.2
2016-Apr-07 23:21N 38°51' E 118°20'88 9.6
2016-Apr-07 14:10N 38°42' E 120°13'1010.1
2016-Apr-07 13:11N 38°41' E 120°26'710.3
2016-Apr-07 12:33N 38°40' E 120°34'1310.1
2016-Apr-07 11:18N 38°38' E 120°50'8 9.7
2016-Apr-07 10:31N 38°34' E 120°58'9 9.6
2016-Apr-07 09:33N 38°30' E 121°09'12 9.6
2016-Apr-07 08:17N 38°27' E 121°24'7 9.8
2016-Apr-07 07:32N 38°24' E 121°33'14 9.5
2016-Apr-07 06:03N 38°19' E 121°49'  
2016-Apr-04 01:33N 31°19' E 121°45'3 1.4
2016-Apr-03 23:12N 31°19' E 121°41'0 0.0
2016-Apr-03 15:18N 31°19' E 121°41'0 0.0
2016-Apr-03 10:30N 31°19' E 121°41'  
Track history (hours):
 
Tides and Currents Weather Stations Pressure Air Temp Water Temp Dewpoint Dewpoint Depression Visibility Wind Speed Wind Dir Waves Ship Positions

Hoegh Berlin

Last reported at 2016-Apr-13 09:09 UTC. Time now 2016-May-02 19:24 UTC.
Position N 33°60' E 134°57'.
Warning: this ship's position is 19 days out of date.

Length 228 m; draft 9.7 m.

Type: Cargo ship. MMSI: 311019100.

Date/timePositionNaut miles runAvg speedWind from/ knotsBaromVisibWave heightAir tempDewpointWater temp
2016-Apr-13 09:09N 33°60' E 134°57'915.4
2016-Apr-13 08:33N 34°09' E 134°58'1413.3
2016-Apr-13 07:32N 34°22' E 135°01'1717.3
2016-Apr-13 06:34N 34°34' E 135°15'7 3.3
2016-Apr-13 04:22N 34°41' E 135°17'0 0.0
2016-Apr-13 03:28N 34°41' E 135°17'0 0.0
2016-Apr-13 02:28N 34°41' E 135°17'0 0.0
2016-Apr-13 01:28N 34°41' E 135°17'0 0.0
2016-Apr-13 00:28N 34°41' E 135°17'0 0.0
2016-Apr-12 23:28N 34°41' E 135°17'1 0.7
2016-Apr-12 22:33N 34°41' E 135°18'1010.1
2016-Apr-12 21:33N 34°32' E 135°13'1616.4
2016-Apr-12 20:33N 34°19' E 135°00'1312.5
2016-Apr-12 19:33N 34°07' E 134°59'20710.9
2016-Apr-12 00:32N 34°02' E 130°50'  
2016-Apr-09 15:27N 34°27' E 125°33'22215.9
2016-Apr-09 01:28N 37°41' E 123°17'2016.0
2016-Apr-09 00:15N 37°49' E 122°54'1516.0
2016-Apr-08 23:19N 37°55' E 122°37'1215.9
2016-Apr-08 22:33N 38°00' E 122°23'1716.1
2016-Apr-08 21:28N 38°07' E 122°03'1516.5
2016-Apr-08 20:33N 38°14' E 121°45'1916.4
2016-Apr-08 19:24N 38°21' E 121°23'1416.5
2016-Apr-08 18:33N 38°26' E 121°07'15915.8
2016-Apr-08 08:31N 38°59' E 117°48'3 0.7
2016-Apr-08 04:18N 39°01' E 117°46'1 1.1
2016-Apr-08 03:31N 39°01' E 117°47'22 6.5
2016-Apr-08 00:10N 38°53' E 118°13'6 7.2
2016-Apr-07 23:21N 38°51' E 118°20'88 9.6
2016-Apr-07 14:10N 38°42' E 120°13'1010.1
2016-Apr-07 13:11N 38°41' E 120°26'710.3
2016-Apr-07 12:33N 38°40' E 120°34'1310.1
2016-Apr-07 11:18N 38°38' E 120°50'8 9.7
2016-Apr-07 10:31N 38°34' E 120°58'9 9.6
2016-Apr-07 09:33N 38°30' E 121°09'12 9.6
2016-Apr-07 08:17N 38°27' E 121°24'7 9.8
2016-Apr-07 07:32N 38°24' E 121°33'14 9.5
2016-Apr-07 06:03N 38°19' E 121°49'  
2016-Apr-04 01:33N 31°19' E 121°45'3 1.4
2016-Apr-03 23:12N 31°19' E 121°41'0 0.0
2016-Apr-03 15:18N 31°19' E 121°41'0 0.0
2016-Apr-03 10:30N 31°19' E 121°41'  

Dump ship's entire track history